sensor_id;sensor_type;location;lat;lon;timestamp;P1;durP1;ratioP1;P2;durP2;ratioP2
51852;SDS011;37894;53.172;6.598;2022-12-18T00:00:47;109.43;;;32.50;;
51852;SDS011;37894;53.172;6.598;2022-12-18T00:03:13;93.85;;;32.08;;
51852;SDS011;37894;53.172;6.598;2022-12-18T00:05:45;96.63;;;34.70;;
51852;SDS011;37894;53.172;6.598;2022-12-18T00:08:14;94.78;;;31.35;;
51852;SDS011;37894;53.172;6.598;2022-12-18T00:10:41;102.20;;;34.90;;
51852;SDS011;37894;53.172;6.598;2022-12-18T00:13:07;113.78;;;33.03;;
51852;SDS011;37894;53.172;6.598;2022-12-18T00:15:36;105.63;;;33.30;;
51852;SDS011;37894;53.172;6.598;2022-12-18T00:18:03;99.75;;;33.50;;
51852;SDS011;37894;53.172;6.598;2022-12-18T00:20:29;105.47;;;33.72;;
51852;SDS011;37894;53.172;6.598;2022-12-18T00:22:55;95.40;;;30.77;;
51852;SDS011;37894;53.172;6.598;2022-12-18T00:25:21;99.80;;;31.35;;
51852;SDS011;37894;53.172;6.598;2022-12-18T00:27:47;105.75;;;32.45;;
51852;SDS011;37894;53.172;6.598;2022-12-18T00:30:13;103.72;;;34.03;;
51852;SDS011;37894;53.172;6.598;2022-12-18T00:32:39;104.85;;;31.67;;
51852;SDS011;37894;53.172;6.598;2022-12-18T00:35:05;107.22;;;34.33;;
51852;SDS011;37894;53.172;6.598;2022-12-18T00:37:33;105.45;;;32.70;;
51852;SDS011;37894;53.172;6.598;2022-12-18T00:39:59;102.82;;;32.40;;
51852;SDS011;37894;53.172;6.598;2022-12-18T00:42:25;104.43;;;35.08;;
51852;SDS011;37894;53.172;6.598;2022-12-18T00:45:10;102.43;;;30.45;;
51852;SDS011;37894;53.172;6.598;2022-12-18T00:47:35;97.47;;;33.47;;
51852;SDS011;37894;53.172;6.598;2022-12-18T00:50:01;106.95;;;31.58;;
51852;SDS011;37894;53.172;6.598;2022-12-18T00:52:27;102.80;;;32.92;;
51852;SDS011;37894;53.172;6.598;2022-12-18T00:54:53;97.18;;;34.00;;
51852;SDS011;37894;53.172;6.598;2022-12-18T00:57:18;108.90;;;33.25;;
51852;SDS011;37894;53.172;6.598;2022-12-18T00:59:44;106.53;;;34.33;;
51852;SDS011;37894;53.172;6.598;2022-12-18T01:02:10;109.60;;;33.97;;
51852;SDS011;37894;53.172;6.598;2022-12-18T01:04:36;98.97;;;33.45;;
51852;SDS011;37894;53.172;6.598;2022-12-18T01:07:02;98.95;;;31.65;;
51852;SDS011;37894;53.172;6.598;2022-12-18T01:09:27;97.45;;;31.70;;
51852;SDS011;37894;53.172;6.598;2022-12-18T01:11:53;87.82;;;32.03;;
51852;SDS011;37894;53.172;6.598;2022-12-18T01:14:19;96.28;;;30.73;;
51852;SDS011;37894;53.172;6.598;2022-12-18T01:16:45;84.00;;;29.15;;
51852;SDS011;37894;53.172;6.598;2022-12-18T01:19:10;92.57;;;31.35;;
51852;SDS011;37894;53.172;6.598;2022-12-18T01:21:36;80.95;;;30.88;;
51852;SDS011;37894;53.172;6.598;2022-12-18T01:24:02;81.93;;;29.70;;
51852;SDS011;37894;53.172;6.598;2022-12-18T01:26:28;82.10;;;29.50;;
51852;SDS011;37894;53.172;6.598;2022-12-18T01:28:57;80.75;;;29.10;;
51852;SDS011;37894;53.172;6.598;2022-12-18T01:31:24;87.60;;;30.27;;
51852;SDS011;37894;53.172;6.598;2022-12-18T01:33:52;80.53;;;29.13;;
51852;SDS011;37894;53.172;6.598;2022-12-18T01:36:23;72.28;;;28.85;;
51852;SDS011;37894;53.172;6.598;2022-12-18T01:38:50;91.05;;;31.42;;
51852;SDS011;37894;53.172;6.598;2022-12-18T01:41:17;83.22;;;29.40;;
51852;SDS011;37894;53.172;6.598;2022-12-18T01:43:46;88.57;;;30.52;;
51852;SDS011;37894;53.172;6.598;2022-12-18T01:46:22;91.85;;;30.73;;
51852;SDS011;37894;53.172;6.598;2022-12-18T01:48:50;88.68;;;31.80;;
51852;SDS011;37894;53.172;6.598;2022-12-18T01:51:18;89.85;;;31.13;;
51852;SDS011;37894;53.172;6.598;2022-12-18T01:53:44;94.20;;;31.38;;
51852;SDS011;37894;53.172;6.598;2022-12-18T01:56:15;94.22;;;31.63;;
51852;SDS011;37894;53.172;6.598;2022-12-18T01:59:02;114.95;;;32.80;;
51852;SDS011;37894;53.172;6.598;2022-12-18T02:01:31;100.00;;;31.27;;
51852;SDS011;37894;53.172;6.598;2022-12-18T02:04:17;95.07;;;31.48;;
51852;SDS011;37894;53.172;6.598;2022-12-18T02:06:45;101.30;;;30.25;;
51852;SDS011;37894;53.172;6.598;2022-12-18T02:09:13;92.03;;;32.25;;
51852;SDS011;37894;53.172;6.598;2022-12-18T02:14:45;90.28;;;29.70;;
51852;SDS011;37894;53.172;6.598;2022-12-18T02:17:11;85.05;;;30.15;;
51852;SDS011;37894;53.172;6.598;2022-12-18T02:25:16;80.78;;;28.83;;
51852;SDS011;37894;53.172;6.598;2022-12-18T02:27:50;86.53;;;29.67;;
51852;SDS011;37894;53.172;6.598;2022-12-18T02:30:17;82.45;;;29.75;;
51852;SDS011;37894;53.172;6.598;2022-12-18T02:32:45;81.50;;;28.42;;
51852;SDS011;37894;53.172;6.598;2022-12-18T02:35:15;91.25;;;29.25;;
51852;SDS011;37894;53.172;6.598;2022-12-18T02:37:45;92.88;;;29.02;;
51852;SDS011;37894;53.172;6.598;2022-12-18T02:40:12;88.82;;;27.83;;
51852;SDS011;37894;53.172;6.598;2022-12-18T02:42:39;105.82;;;32.38;;
51852;SDS011;37894;53.172;6.598;2022-12-18T02:45:06;87.03;;;30.95;;
51852;SDS011;37894;53.172;6.598;2022-12-18T02:47:32;91.07;;;30.20;;
51852;SDS011;37894;53.172;6.598;2022-12-18T02:50:07;99.82;;;31.50;;
51852;SDS011;37894;53.172;6.598;2022-12-18T02:52:49;97.57;;;33.75;;
51852;SDS011;37894;53.172;6.598;2022-12-18T02:55:48;100.40;;;34.10;;
51852;SDS011;37894;53.172;6.598;2022-12-18T03:06:53;104.25;;;33.00;;
51852;SDS011;37894;53.172;6.598;2022-12-18T03:09:24;85.30;;;33.70;;
51852;SDS011;37894;53.172;6.598;2022-12-18T03:11:58;96.55;;;32.70;;
51852;SDS011;37894;53.172;6.598;2022-12-18T03:15:20;91.82;;;32.58;;
51852;SDS011;37894;53.172;6.598;2022-12-18T03:17:57;103.35;;;34.20;;
51852;SDS011;37894;53.172;6.598;2022-12-18T03:20:27;88.68;;;30.63;;
51852;SDS011;37894;53.172;6.598;2022-12-18T03:23:02;107.22;;;34.83;;
51852;SDS011;37894;53.172;6.598;2022-12-18T03:25:33;101.45;;;35.08;;
51852;SDS011;37894;53.172;6.598;2022-12-18T03:28:02;87.60;;;32.28;;
51852;SDS011;37894;53.172;6.598;2022-12-18T03:30:30;90.63;;;31.90;;
51852;SDS011;37894;53.172;6.598;2022-12-18T03:33:09;100.20;;;33.17;;
51852;SDS011;37894;53.172;6.598;2022-12-18T03:35:41;104.50;;;33.72;;
51852;SDS011;37894;53.172;6.598;2022-12-18T03:38:07;95.55;;;33.33;;
51852;SDS011;37894;53.172;6.598;2022-12-18T03:43:16;97.05;;;33.80;;
51852;SDS011;37894;53.172;6.598;2022-12-18T03:46:02;90.68;;;33.00;;
51852;SDS011;37894;53.172;6.598;2022-12-18T03:48:51;94.53;;;31.67;;
51852;SDS011;37894;53.172;6.598;2022-12-18T03:51:28;90.65;;;31.52;;
51852;SDS011;37894;53.172;6.598;2022-12-18T03:54:03;91.03;;;30.95;;
51852;SDS011;37894;53.172;6.598;2022-12-18T03:56:43;101.15;;;34.00;;
51852;SDS011;37894;53.172;6.598;2022-12-18T03:59:16;87.60;;;32.20;;
51852;SDS011;37894;53.172;6.598;2022-12-18T04:01:47;91.35;;;32.28;;
51852;SDS011;37894;53.172;6.598;2022-12-18T04:04:16;91.20;;;32.00;;
51852;SDS011;37894;53.172;6.598;2022-12-18T04:06:43;97.32;;;32.53;;
51852;SDS011;37894;53.172;6.598;2022-12-18T04:09:11;88.25;;;32.55;;
51852;SDS011;37894;53.172;6.598;2022-12-18T04:11:38;105.28;;;34.17;;
51852;SDS011;37894;53.172;6.598;2022-12-18T04:14:06;85.82;;;33.08;;
51852;SDS011;37894;53.172;6.598;2022-12-18T04:16:32;93.45;;;32.75;;
51852;SDS011;37894;53.172;6.598;2022-12-18T04:18:58;84.50;;;30.45;;
51852;SDS011;37894;53.172;6.598;2022-12-18T04:21:24;85.13;;;31.63;;
51852;SDS011;37894;53.172;6.598;2022-12-18T04:23:50;78.82;;;29.77;;
51852;SDS011;37894;53.172;6.598;2022-12-18T04:26:15;96.07;;;31.83;;
51852;SDS011;37894;53.172;6.598;2022-12-18T04:28:41;81.80;;;30.58;;
51852;SDS011;37894;53.172;6.598;2022-12-18T04:31:07;94.20;;;32.35;;
51852;SDS011;37894;53.172;6.598;2022-12-18T04:33:34;80.03;;;31.20;;
51852;SDS011;37894;53.172;6.598;2022-12-18T04:36:00;80.70;;;32.30;;
51852;SDS011;37894;53.172;6.598;2022-12-18T04:38:25;86.65;;;30.45;;
51852;SDS011;37894;53.172;6.598;2022-12-18T04:40:51;79.25;;;29.38;;
51852;SDS011;37894;53.172;6.598;2022-12-18T04:43:17;82.43;;;29.08;;
51852;SDS011;37894;53.172;6.598;2022-12-18T04:45:43;84.38;;;30.60;;
51852;SDS011;37894;53.172;6.598;2022-12-18T04:48:09;85.32;;;29.67;;
51852;SDS011;37894;53.172;6.598;2022-12-18T04:50:34;71.95;;;27.48;;
51852;SDS011;37894;53.172;6.598;2022-12-18T04:53:00;82.55;;;30.23;;
51852;SDS011;37894;53.172;6.598;2022-12-18T04:55:26;89.88;;;31.55;;
51852;SDS011;37894;53.172;6.598;2022-12-18T04:57:52;83.88;;;30.20;;
51852;SDS011;37894;53.172;6.598;2022-12-18T05:00:18;73.05;;;29.33;;
51852;SDS011;37894;53.172;6.598;2022-12-18T05:02:44;79.88;;;28.80;;
51852;SDS011;37894;53.172;6.598;2022-12-18T05:05:10;72.55;;;28.73;;
51852;SDS011;37894;53.172;6.598;2022-12-18T05:07:36;77.53;;;29.40;;
51852;SDS011;37894;53.172;6.598;2022-12-18T05:10:02;80.15;;;29.38;;
51852;SDS011;37894;53.172;6.598;2022-12-18T05:12:28;84.68;;;30.10;;
51852;SDS011;37894;53.172;6.598;2022-12-18T05:14:54;71.32;;;27.48;;
51852;SDS011;37894;53.172;6.598;2022-12-18T05:17:20;70.28;;;27.10;;
51852;SDS011;37894;53.172;6.598;2022-12-18T05:19:46;75.93;;;28.80;;
51852;SDS011;37894;53.172;6.598;2022-12-18T05:22:12;74.68;;;28.52;;
51852;SDS011;37894;53.172;6.598;2022-12-18T05:24:38;73.00;;;27.13;;
51852;SDS011;37894;53.172;6.598;2022-12-18T05:27:03;66.20;;;25.15;;
51852;SDS011;37894;53.172;6.598;2022-12-18T05:29:29;71.32;;;27.50;;
51852;SDS011;37894;53.172;6.598;2022-12-18T05:31:55;71.32;;;27.38;;
51852;SDS011;37894;53.172;6.598;2022-12-18T05:34:21;77.15;;;27.17;;
51852;SDS011;37894;53.172;6.598;2022-12-18T05:36:47;76.15;;;27.23;;
51852;SDS011;37894;53.172;6.598;2022-12-18T05:39:13;63.60;;;25.33;;
51852;SDS011;37894;53.172;6.598;2022-12-18T05:41:39;69.00;;;26.77;;
51852;SDS011;37894;53.172;6.598;2022-12-18T05:44:05;78.82;;;29.10;;
51852;SDS011;37894;53.172;6.598;2022-12-18T05:46:31;60.72;;;26.10;;
51852;SDS011;37894;53.172;6.598;2022-12-18T05:48:58;60.45;;;25.23;;
51852;SDS011;37894;53.172;6.598;2022-12-18T05:51:26;61.42;;;24.90;;
51852;SDS011;37894;53.172;6.598;2022-12-18T05:53:52;64.35;;;26.10;;
51852;SDS011;37894;53.172;6.598;2022-12-18T05:56:21;62.63;;;26.80;;
51852;SDS011;37894;53.172;6.598;2022-12-18T05:58:50;59.15;;;23.55;;
51852;SDS011;37894;53.172;6.598;2022-12-18T06:01:18;62.50;;;26.60;;
51852;SDS011;37894;53.172;6.598;2022-12-18T06:03:46;61.83;;;25.58;;
51852;SDS011;37894;53.172;6.598;2022-12-18T06:06:19;62.47;;;24.42;;
51852;SDS011;37894;53.172;6.598;2022-12-18T06:08:47;72.45;;;26.13;;
51852;SDS011;37894;53.172;6.598;2022-12-18T06:11:15;64.05;;;26.70;;
51852;SDS011;37894;53.172;6.598;2022-12-18T06:13:42;62.90;;;25.38;;
51852;SDS011;37894;53.172;6.598;2022-12-18T06:16:08;58.05;;;25.05;;
51852;SDS011;37894;53.172;6.598;2022-12-18T06:18:37;53.30;;;22.73;;
51852;SDS011;37894;53.172;6.598;2022-12-18T06:21:03;59.42;;;24.60;;
51852;SDS011;37894;53.172;6.598;2022-12-18T06:23:32;58.88;;;23.85;;
51852;SDS011;37894;53.172;6.598;2022-12-18T06:25:57;51.72;;;22.15;;
51852;SDS011;37894;53.172;6.598;2022-12-18T06:28:23;47.13;;;22.83;;
51852;SDS011;37894;53.172;6.598;2022-12-18T06:30:49;51.30;;;22.65;;
51852;SDS011;37894;53.172;6.598;2022-12-18T06:33:15;48.90;;;22.15;;
51852;SDS011;37894;53.172;6.598;2022-12-18T06:35:41;56.42;;;22.67;;
51852;SDS011;37894;53.172;6.598;2022-12-18T06:38:07;57.30;;;22.55;;
51852;SDS011;37894;53.172;6.598;2022-12-18T06:40:33;54.13;;;23.10;;
51852;SDS011;37894;53.172;6.598;2022-12-18T06:42:59;51.90;;;21.20;;
51852;SDS011;37894;53.172;6.598;2022-12-18T06:45:25;54.17;;;23.17;;
51852;SDS011;37894;53.172;6.598;2022-12-18T06:47:51;47.65;;;20.30;;
51852;SDS011;37894;53.172;6.598;2022-12-18T06:50:16;52.45;;;21.85;;
51852;SDS011;37894;53.172;6.598;2022-12-18T06:52:42;48.55;;;20.70;;
51852;SDS011;37894;53.172;6.598;2022-12-18T06:55:09;50.25;;;20.27;;
51852;SDS011;37894;53.172;6.598;2022-12-18T06:57:36;49.85;;;22.00;;
51852;SDS011;37894;53.172;6.598;2022-12-18T07:00:03;45.85;;;21.13;;
51852;SDS011;37894;53.172;6.598;2022-12-18T07:02:30;54.33;;;21.75;;
51852;SDS011;37894;53.172;6.598;2022-12-18T07:04:56;46.42;;;20.48;;
51852;SDS011;37894;53.172;6.598;2022-12-18T07:07:22;47.20;;;20.67;;
51852;SDS011;37894;53.172;6.598;2022-12-18T07:09:49;44.08;;;20.35;;
51852;SDS011;37894;53.172;6.598;2022-12-18T07:12:15;44.67;;;20.42;;
51852;SDS011;37894;53.172;6.598;2022-12-18T07:14:41;43.08;;;21.05;;
51852;SDS011;37894;53.172;6.598;2022-12-18T07:17:07;46.60;;;21.13;;
51852;SDS011;37894;53.172;6.598;2022-12-18T07:19:33;47.67;;;20.58;;
51852;SDS011;37894;53.172;6.598;2022-12-18T07:21:59;51.67;;;18.75;;
51852;SDS011;37894;53.172;6.598;2022-12-18T07:24:24;45.00;;;19.45;;
51852;SDS011;37894;53.172;6.598;2022-12-18T07:26:50;44.95;;;20.13;;
51852;SDS011;37894;53.172;6.598;2022-12-18T07:29:16;51.80;;;20.58;;
51852;SDS011;37894;53.172;6.598;2022-12-18T07:31:42;51.85;;;19.52;;
51852;SDS011;37894;53.172;6.598;2022-12-18T07:34:12;39.75;;;17.42;;
51852;SDS011;37894;53.172;6.598;2022-12-18T07:36:38;37.65;;;20.25;;
51852;SDS011;37894;53.172;6.598;2022-12-18T07:39:04;43.10;;;20.85;;
51852;SDS011;37894;53.172;6.598;2022-12-18T07:41:30;45.10;;;19.67;;
51852;SDS011;37894;53.172;6.598;2022-12-18T07:43:56;41.10;;;19.58;;
51852;SDS011;37894;53.172;6.598;2022-12-18T07:46:22;40.22;;;17.92;;
51852;SDS011;37894;53.172;6.598;2022-12-18T07:48:48;37.38;;;18.00;;
51852;SDS011;37894;53.172;6.598;2022-12-18T07:51:13;39.75;;;18.77;;
51852;SDS011;37894;53.172;6.598;2022-12-18T07:53:40;41.88;;;19.15;;
51852;SDS011;37894;53.172;6.598;2022-12-18T07:56:07;37.58;;;17.95;;
51852;SDS011;37894;53.172;6.598;2022-12-18T07:58:36;39.65;;;17.77;;
51852;SDS011;37894;53.172;6.598;2022-12-18T08:01:03;35.65;;;18.23;;
51852;SDS011;37894;53.172;6.598;2022-12-18T08:03:30;39.92;;;18.63;;
51852;SDS011;37894;53.172;6.598;2022-12-18T08:06:02;38.97;;;18.13;;
51852;SDS011;37894;53.172;6.598;2022-12-18T08:08:30;38.28;;;18.45;;
51852;SDS011;37894;53.172;6.598;2022-12-18T08:10:56;35.95;;;18.48;;
51852;SDS011;37894;53.172;6.598;2022-12-18T08:13:22;39.65;;;20.38;;
51852;SDS011;37894;53.172;6.598;2022-12-18T08:15:55;42.60;;;20.98;;
51852;SDS011;37894;53.172;6.598;2022-12-18T08:18:25;56.03;;;27.50;;
51852;SDS011;37894;53.172;6.598;2022-12-18T08:20:51;61.28;;;28.98;;
51852;SDS011;37894;53.172;6.598;2022-12-18T08:23:17;111.40;;;52.22;;
51852;SDS011;37894;53.172;6.598;2022-12-18T08:25:43;63.25;;;32.75;;
51852;SDS011;37894;53.172;6.598;2022-12-18T08:28:09;54.72;;;27.85;;
51852;SDS011;37894;53.172;6.598;2022-12-18T08:30:35;53.80;;;25.73;;
51852;SDS011;37894;53.172;6.598;2022-12-18T08:33:01;50.40;;;27.05;;
51852;SDS011;37894;53.172;6.598;2022-12-18T08:35:27;42.80;;;22.95;;
51852;SDS011;37894;53.172;6.598;2022-12-18T08:37:53;47.13;;;23.83;;
51852;SDS011;37894;53.172;6.598;2022-12-18T08:40:19;48.90;;;22.27;;
51852;SDS011;37894;53.172;6.598;2022-12-18T08:42:45;38.08;;;19.35;;
51852;SDS011;37894;53.172;6.598;2022-12-18T08:45:29;34.58;;;18.92;;
51852;SDS011;37894;53.172;6.598;2022-12-18T08:47:55;38.13;;;19.20;;
51852;SDS011;37894;53.172;6.598;2022-12-18T08:50:20;40.95;;;20.10;;
51852;SDS011;37894;53.172;6.598;2022-12-18T08:52:46;39.85;;;19.75;;
51852;SDS011;37894;53.172;6.598;2022-12-18T08:55:12;38.17;;;18.92;;
51852;SDS011;37894;53.172;6.598;2022-12-18T08:57:38;37.33;;;19.33;;
51852;SDS011;37894;53.172;6.598;2022-12-18T09:00:04;43.28;;;19.38;;
51852;SDS011;37894;53.172;6.598;2022-12-18T09:02:30;44.15;;;19.38;;
51852;SDS011;37894;53.172;6.598;2022-12-18T09:04:56;35.13;;;17.10;;
51852;SDS011;37894;53.172;6.598;2022-12-18T09:07:22;38.88;;;18.05;;
51852;SDS011;37894;53.172;6.598;2022-12-18T09:09:47;37.90;;;17.63;;
51852;SDS011;37894;53.172;6.598;2022-12-18T09:12:13;36.35;;;17.98;;
51852;SDS011;37894;53.172;6.598;2022-12-18T09:14:39;33.90;;;17.25;;
51852;SDS011;37894;53.172;6.598;2022-12-18T09:17:05;36.45;;;18.40;;
51852;SDS011;37894;53.172;6.598;2022-12-18T09:19:31;30.92;;;16.17;;
51852;SDS011;37894;53.172;6.598;2022-12-18T09:21:57;33.17;;;18.73;;
51852;SDS011;37894;53.172;6.598;2022-12-18T09:24:22;32.55;;;17.52;;
51852;SDS011;37894;53.172;6.598;2022-12-18T09:26:48;34.15;;;17.98;;
51852;SDS011;37894;53.172;6.598;2022-12-18T09:29:15;31.02;;;16.33;;
51852;SDS011;37894;53.172;6.598;2022-12-18T09:31:41;33.45;;;17.30;;
51852;SDS011;37894;53.172;6.598;2022-12-18T09:34:07;33.97;;;16.67;;
51852;SDS011;37894;53.172;6.598;2022-12-18T09:36:33;31.40;;;17.02;;
51852;SDS011;37894;53.172;6.598;2022-12-18T09:38:58;36.70;;;18.83;;
51852;SDS011;37894;53.172;6.598;2022-12-18T09:44:23;34.10;;;17.38;;
51852;SDS011;37894;53.172;6.598;2022-12-18T09:49:33;28.98;;;16.17;;
51852;SDS011;37894;53.172;6.598;2022-12-18T09:54:31;27.60;;;14.13;;
51852;SDS011;37894;53.172;6.598;2022-12-18T09:57:19;29.70;;;15.27;;
51852;SDS011;37894;53.172;6.598;2022-12-18T09:59:55;25.55;;;14.45;;
51852;SDS011;37894;53.172;6.598;2022-12-18T10:02:24;26.30;;;14.00;;
51852;SDS011;37894;53.172;6.598;2022-12-18T10:05:07;22.48;;;13.07;;
51852;SDS011;37894;53.172;6.598;2022-12-18T10:13:03;30.02;;;15.48;;
51852;SDS011;37894;53.172;6.598;2022-12-18T10:15:36;36.00;;;17.90;;
51852;SDS011;37894;53.172;6.598;2022-12-18T10:18:19;33.33;;;15.17;;
51852;SDS011;37894;53.172;6.598;2022-12-18T10:21:05;30.65;;;15.38;;
51852;SDS011;37894;53.172;6.598;2022-12-18T10:23:40;26.67;;;15.07;;
51852;SDS011;37894;53.172;6.598;2022-12-18T10:26:19;28.42;;;14.88;;
51852;SDS011;37894;53.172;6.598;2022-12-18T10:28:45;30.98;;;15.93;;
51852;SDS011;37894;53.172;6.598;2022-12-18T10:31:15;31.63;;;16.63;;
51852;SDS011;37894;53.172;6.598;2022-12-18T10:33:46;31.52;;;15.23;;
51852;SDS011;37894;53.172;6.598;2022-12-18T10:36:12;26.42;;;14.95;;
51852;SDS011;37894;53.172;6.598;2022-12-18T10:38:38;32.05;;;15.57;;
51852;SDS011;37894;53.172;6.598;2022-12-18T10:41:05;30.20;;;14.95;;
51852;SDS011;37894;53.172;6.598;2022-12-18T10:46:44;23.77;;;14.48;;
51852;SDS011;37894;53.172;6.598;2022-12-18T10:49:25;18.88;;;10.95;;
51852;SDS011;37894;53.172;6.598;2022-12-18T10:52:04;21.92;;;13.48;;
51852;SDS011;37894;53.172;6.598;2022-12-18T10:54:32;19.17;;;10.55;;
51852;SDS011;37894;53.172;6.598;2022-12-18T10:57:42;17.77;;;9.80;;
51852;SDS011;37894;53.172;6.598;2022-12-18T10:59:52;19.85;;;9.30;;
51852;SDS011;37894;53.172;6.598;2022-12-18T11:02:35;14.13;;;8.70;;
51852;SDS011;37894;53.172;6.598;2022-12-18T11:05:04;19.00;;;10.65;;
51852;SDS011;37894;53.172;6.598;2022-12-18T11:07:56;16.33;;;8.82;;
51852;SDS011;37894;53.172;6.598;2022-12-18T11:10:28;14.73;;;9.10;;
51852;SDS011;37894;53.172;6.598;2022-12-18T11:13:35;15.57;;;9.27;;
51852;SDS011;37894;53.172;6.598;2022-12-18T11:15:55;15.70;;;9.13;;
51852;SDS011;37894;53.172;6.598;2022-12-18T11:18:28;15.90;;;9.18;;
51852;SDS011;37894;53.172;6.598;2022-12-18T11:20:59;14.65;;;8.55;;
51852;SDS011;37894;53.172;6.598;2022-12-18T11:23:32;15.57;;;9.38;;
51852;SDS011;37894;53.172;6.598;2022-12-18T11:26:00;14.88;;;8.50;;
51852;SDS011;37894;53.172;6.598;2022-12-18T11:33:38;16.27;;;8.88;;
51852;SDS011;37894;53.172;6.598;2022-12-18T11:36:07;14.93;;;9.35;;
51852;SDS011;37894;53.172;6.598;2022-12-18T11:38:38;14.15;;;8.25;;
51852;SDS011;37894;53.172;6.598;2022-12-18T11:41:19;15.90;;;8.57;;
51852;SDS011;37894;53.172;6.598;2022-12-18T11:44:11;15.00;;;8.18;;
51852;SDS011;37894;53.172;6.598;2022-12-18T11:46:51;12.38;;;7.60;;
51852;SDS011;37894;53.172;6.598;2022-12-18T11:49:25;15.43;;;7.90;;
51852;SDS011;37894;53.172;6.598;2022-12-18T11:55:04;11.30;;;6.70;;
51852;SDS011;37894;53.172;6.598;2022-12-18T12:00:11;13.38;;;7.10;;
51852;SDS011;37894;53.172;6.598;2022-12-18T12:06:14;12.30;;;7.72;;
51852;SDS011;37894;53.172;6.598;2022-12-18T12:17:06;15.52;;;7.97;;
51852;SDS011;37894;53.172;6.598;2022-12-18T12:19:47;14.70;;;8.20;;
51852;SDS011;37894;53.172;6.598;2022-12-18T12:25:11;13.57;;;7.07;;
51852;SDS011;37894;53.172;6.598;2022-12-18T12:30:48;12.10;;;7.00;;
51852;SDS011;37894;53.172;6.598;2022-12-18T12:38:42;11.00;;;6.22;;
51852;SDS011;37894;53.172;6.598;2022-12-18T12:41:12;12.52;;;7.28;;
51852;SDS011;37894;53.172;6.598;2022-12-18T12:44:01;13.25;;;6.93;;
51852;SDS011;37894;53.172;6.598;2022-12-18T12:46:32;11.50;;;7.03;;
51852;SDS011;37894;53.172;6.598;2022-12-18T12:49:02;14.77;;;7.20;;
51852;SDS011;37894;53.172;6.598;2022-12-18T12:51:38;12.77;;;7.97;;
51852;SDS011;37894;53.172;6.598;2022-12-18T12:54:16;10.95;;;6.38;;
51852;SDS011;37894;53.172;6.598;2022-12-18T13:13:11;16.92;;;7.50;;
51852;SDS011;37894;53.172;6.598;2022-12-18T13:15:43;11.65;;;6.07;;
51852;SDS011;37894;53.172;6.598;2022-12-18T13:18:18;12.27;;;7.40;;
51852;SDS011;37894;53.172;6.598;2022-12-18T13:25:48;10.90;;;6.43;;
51852;SDS011;37894;53.172;6.598;2022-12-18T13:31:53;17.27;;;8.60;;
51852;SDS011;37894;53.172;6.598;2022-12-18T13:34:19;21.08;;;10.95;;
51852;SDS011;37894;53.172;6.598;2022-12-18T13:36:51;16.25;;;9.05;;
51852;SDS011;37894;53.172;6.598;2022-12-18T13:44:55;11.05;;;7.10;;
51852;SDS011;37894;53.172;6.598;2022-12-18T13:47:36;14.60;;;7.05;;
51852;SDS011;37894;53.172;6.598;2022-12-18T13:50:09;15.18;;;7.50;;
51852;SDS011;37894;53.172;6.598;2022-12-18T13:52:55;12.68;;;7.18;;
51852;SDS011;37894;53.172;6.598;2022-12-18T13:55:22;19.30;;;10.00;;
51852;SDS011;37894;53.172;6.598;2022-12-18T13:57:48;11.55;;;6.95;;
51852;SDS011;37894;53.172;6.598;2022-12-18T14:00:35;13.60;;;9.10;;
51852;SDS011;37894;53.172;6.598;2022-12-18T14:03:00;11.10;;;6.40;;
51852;SDS011;37894;53.172;6.598;2022-12-18T14:05:30;12.90;;;7.50;;
51852;SDS011;37894;53.172;6.598;2022-12-18T14:08:01;14.77;;;7.50;;
51852;SDS011;37894;53.172;6.598;2022-12-18T14:10:47;12.50;;;7.00;;
51852;SDS011;37894;53.172;6.598;2022-12-18T14:13:15;11.20;;;6.57;;
51852;SDS011;37894;53.172;6.598;2022-12-18T14:15:59;11.55;;;7.03;;
51852;SDS011;37894;53.172;6.598;2022-12-18T14:21:18;12.52;;;7.20;;
51852;SDS011;37894;53.172;6.598;2022-12-18T14:23:47;11.98;;;7.53;;
51852;SDS011;37894;53.172;6.598;2022-12-18T14:26:20;12.82;;;7.43;;
51852;SDS011;37894;53.172;6.598;2022-12-18T14:28:58;10.80;;;7.32;;
51852;SDS011;37894;53.172;6.598;2022-12-18T14:31:43;14.18;;;6.97;;
51852;SDS011;37894;53.172;6.598;2022-12-18T14:34:15;14.52;;;8.18;;
51852;SDS011;37894;53.172;6.598;2022-12-18T14:36:44;13.30;;;7.25;;
51852;SDS011;37894;53.172;6.598;2022-12-18T14:39:17;11.95;;;7.55;;
51852;SDS011;37894;53.172;6.598;2022-12-18T14:41:43;17.58;;;9.95;;
51852;SDS011;37894;53.172;6.598;2022-12-18T14:44:10;12.95;;;7.97;;
51852;SDS011;37894;53.172;6.598;2022-12-18T14:46:38;36.15;;;18.00;;
51852;SDS011;37894;53.172;6.598;2022-12-18T14:51:50;15.93;;;9.45;;
51852;SDS011;37894;53.172;6.598;2022-12-18T14:54:30;19.58;;;10.55;;
51852;SDS011;37894;53.172;6.598;2022-12-18T14:57:01;17.73;;;10.70;;
51852;SDS011;37894;53.172;6.598;2022-12-18T14:59:31;15.27;;;9.85;;
51852;SDS011;37894;53.172;6.598;2022-12-18T15:02:12;16.60;;;10.23;;
51852;SDS011;37894;53.172;6.598;2022-12-18T15:04:45;19.50;;;11.07;;
51852;SDS011;37894;53.172;6.598;2022-12-18T15:07:19;15.40;;;9.52;;
51852;SDS011;37894;53.172;6.598;2022-12-18T15:12:35;22.27;;;13.88;;
51852;SDS011;37894;53.172;6.598;2022-12-18T15:15:04;22.58;;;11.27;;
51852;SDS011;37894;53.172;6.598;2022-12-18T15:17:56;29.15;;;16.17;;
51852;SDS011;37894;53.172;6.598;2022-12-18T15:20:22;20.70;;;12.02;;
51852;SDS011;37894;53.172;6.598;2022-12-18T15:22:48;17.20;;;10.05;;
51852;SDS011;37894;53.172;6.598;2022-12-18T15:25:48;17.70;;;10.85;;
51852;SDS011;37894;53.172;6.598;2022-12-18T15:28:26;16.45;;;9.75;;
51852;SDS011;37894;53.172;6.598;2022-12-18T15:30:59;21.20;;;12.27;;
51852;SDS011;37894;53.172;6.598;2022-12-18T15:33:31;18.38;;;10.52;;
51852;SDS011;37894;53.172;6.598;2022-12-18T15:35:58;20.83;;;11.88;;
51852;SDS011;37894;53.172;6.598;2022-12-18T15:38:26;16.75;;;10.50;;
51852;SDS011;37894;53.172;6.598;2022-12-18T15:40:53;18.83;;;10.35;;
51852;SDS011;37894;53.172;6.598;2022-12-18T15:43:22;16.63;;;10.10;;
51852;SDS011;37894;53.172;6.598;2022-12-18T15:45:58;17.85;;;10.18;;
51852;SDS011;37894;53.172;6.598;2022-12-18T15:48:29;20.60;;;11.35;;
51852;SDS011;37894;53.172;6.598;2022-12-18T15:50:56;18.63;;;10.13;;
51852;SDS011;37894;53.172;6.598;2022-12-18T15:53:23;15.50;;;9.50;;
51852;SDS011;37894;53.172;6.598;2022-12-18T15:55:51;20.33;;;10.15;;
51852;SDS011;37894;53.172;6.598;2022-12-18T15:58:35;17.23;;;9.90;;
51852;SDS011;37894;53.172;6.598;2022-12-18T16:01:01;16.98;;;9.10;;
51852;SDS011;37894;53.172;6.598;2022-12-18T16:03:27;17.98;;;11.27;;
51852;SDS011;37894;53.172;6.598;2022-12-18T16:05:53;33.47;;;16.90;;
51852;SDS011;37894;53.172;6.598;2022-12-18T16:08:19;22.52;;;12.45;;
51852;SDS011;37894;53.172;6.598;2022-12-18T16:10:45;15.90;;;10.15;;
51852;SDS011;37894;53.172;6.598;2022-12-18T16:13:11;17.70;;;10.02;;
51852;SDS011;37894;53.172;6.598;2022-12-18T16:15:39;16.60;;;9.35;;
51852;SDS011;37894;53.172;6.598;2022-12-18T16:18:05;18.50;;;10.45;;
51852;SDS011;37894;53.172;6.598;2022-12-18T16:20:30;15.52;;;10.27;;
51852;SDS011;37894;53.172;6.598;2022-12-18T16:22:56;17.20;;;10.52;;
51852;SDS011;37894;53.172;6.598;2022-12-18T16:25:26;17.83;;;10.20;;
51852;SDS011;37894;53.172;6.598;2022-12-18T16:27:53;18.45;;;10.05;;